createdAt,value
2023-02-07T00:01:30.332Z,10.98
2023-02-07T00:03:58.710Z,12.40
2023-02-07T00:06:29.354Z,10.73
2023-02-07T00:08:56.812Z,10.55
2023-02-07T00:11:24.455Z,10.20
2023-02-07T00:13:55.846Z,12.88
2023-02-07T00:16:25.510Z,12.23
2023-02-07T00:18:53.475Z,12.68
2023-02-07T00:21:23.416Z,11.48
2023-02-07T00:23:50.812Z,13.55
2023-02-07T00:26:19.274Z,12.73
2023-02-07T00:28:46.819Z,12.27
2023-02-07T00:31:17.915Z,12.30
2023-02-07T00:33:46.545Z,11.95
2023-02-07T00:36:19.702Z,11.52
2023-02-07T00:38:47.602Z,12.25
2023-02-07T00:41:17.814Z,17.02
2023-02-07T00:43:46.773Z,13.45
2023-02-07T00:46:14.594Z,14.05
2023-02-07T00:48:41.721Z,15.32
2023-02-07T00:51:10.146Z,15.43
2023-02-07T00:53:37.850Z,16.92
2023-02-07T00:56:05.304Z,13.45
2023-02-07T00:58:32.301Z,14.90
2023-02-07T01:01:00.037Z,14.02
2023-02-07T01:03:27.347Z,15.57
2023-02-07T01:05:54.500Z,14.85
2023-02-07T01:08:21.602Z,15.35
2023-02-07T01:10:48.788Z,14.77
2023-02-07T01:13:16.542Z,16.33
2023-02-07T01:15:46.911Z,16.67
2023-02-07T01:18:14.072Z,16.80
2023-02-07T01:20:41.577Z,15.35
2023-02-07T01:23:08.658Z,17.25
2023-02-07T01:25:35.820Z,15.85
2023-02-07T01:28:03.043Z,18.55
2023-02-07T01:30:30.350Z,16.13
2023-02-07T01:32:57.968Z,16.08
2023-02-07T01:35:25.765Z,20.42
2023-02-07T01:37:52.886Z,15.40
2023-02-07T01:40:21.168Z,15.57
2023-02-07T01:42:48.173Z,18.98
2023-02-07T01:45:34.061Z,18.88
2023-02-07T01:48:08.662Z,19.30
2023-02-07T01:53:06.254Z,16.90
2023-02-07T01:55:37.157Z,17.08
2023-02-07T01:58:07.161Z,17.90
2023-02-07T02:00:36.057Z,16.15
2023-02-07T02:03:04.816Z,16.75
2023-02-07T02:05:34.059Z,16.83
2023-02-07T02:08:01.200Z,15.82
2023-02-07T02:10:38.677Z,20.85
2023-02-07T02:13:11.394Z,16.70
2023-02-07T02:15:47.861Z,18.48
2023-02-07T02:18:24.045Z,16.73
2023-02-07T02:21:12.433Z,17.83
2023-02-07T02:23:58.293Z,20.10
2023-02-07T02:26:42.740Z,20.70
2023-02-07T02:29:55.359Z,21.42
2023-02-07T02:32:37.777Z,21.75
2023-02-07T02:35:22.527Z,19.42
2023-02-07T02:37:59.374Z,19.10
2023-02-07T02:40:40.277Z,19.45
2023-02-07T02:43:10.814Z,20.40
2023-02-07T02:45:42.754Z,20.35
2023-02-07T02:48:14.442Z,18.38
2023-02-07T02:50:47.299Z,18.25
2023-02-07T02:53:15.323Z,23.70
2023-02-07T02:56:04.730Z,22.05
2023-02-07T02:58:50.574Z,21.10
2023-02-07T03:01:29.218Z,19.15
2023-02-07T03:04:21.188Z,21.02
2023-02-07T03:07:06.094Z,18.60
2023-02-07T03:09:58.140Z,17.60
2023-02-07T03:12:40.261Z,19.75
2023-02-07T03:15:16.960Z,15.65
2023-02-07T03:17:56.190Z,21.20
2023-02-07T03:20:30.634Z,19.70
2023-02-07T03:23:00.393Z,21.50
2023-02-07T03:25:29.483Z,17.67
2023-02-07T03:27:57.431Z,20.25
2023-02-07T03:30:29.444Z,18.92
2023-02-07T03:33:03.458Z,19.77
2023-02-07T03:35:41.283Z,22.92
2023-02-07T03:38:09.030Z,18.08
2023-02-07T03:41:02.609Z,18.08
2023-02-07T03:43:32.516Z,21.40
2023-02-07T03:45:59.872Z,17.92
2023-02-07T03:48:27.192Z,18.73
2023-02-07T03:50:54.360Z,19.63
2023-02-07T03:53:22.093Z,20.10
2023-02-07T03:55:49.381Z,21.63
2023-02-07T03:58:16.580Z,19.75
2023-02-07T04:00:44.102Z,17.75
2023-02-07T04:03:11.619Z,21.48
2023-02-07T04:05:39.502Z,18.05
2023-02-07T04:08:06.941Z,22.52
2023-02-07T04:10:34.765Z,20.92
2023-02-07T04:13:01.988Z,20.38
2023-02-07T04:15:29.686Z,19.60
2023-02-07T04:17:57.025Z,21.65
2023-02-07T04:20:24.249Z,21.13
2023-02-07T04:22:51.577Z,21.58
2023-02-07T04:25:18.968Z,21.17
2023-02-07T04:27:46.375Z,21.13
2023-02-07T04:30:13.782Z,20.20
2023-02-07T04:32:41.281Z,19.23
2023-02-07T04:35:08.987Z,19.67
2023-02-07T04:37:36.126Z,21.92
2023-02-07T04:40:03.379Z,23.33
2023-02-07T04:42:30.544Z,19.77
2023-02-07T04:44:57.634Z,20.38
2023-02-07T04:47:24.901Z,20.25
2023-02-07T04:49:52.184Z,19.15
2023-02-07T04:52:19.476Z,20.90
2023-02-07T04:54:46.933Z,21.70
2023-02-07T04:57:14.319Z,21.45
2023-02-07T04:59:41.641Z,20.73
2023-02-07T05:02:09.665Z,19.08
2023-02-07T05:04:37.115Z,20.02
2023-02-07T05:07:04.324Z,24.40
2023-02-07T05:09:31.662Z,22.45
2023-02-07T05:11:59.467Z,19.05
2023-02-07T05:14:26.610Z,22.92
2023-02-07T05:16:54.016Z,21.35
2023-02-07T05:19:21.260Z,22.60
2023-02-07T05:21:48.505Z,20.42
2023-02-07T05:24:15.862Z,24.92
2023-02-07T05:26:43.151Z,23.52
2023-02-07T05:29:10.457Z,19.77
2023-02-07T05:31:56.114Z,19.35
2023-02-07T05:34:24.152Z,19.15
2023-02-07T05:36:51.824Z,19.63
2023-02-07T05:39:19.280Z,21.60
2023-02-07T05:41:46.648Z,18.58
2023-02-07T05:44:14.000Z,19.13
2023-02-07T05:46:41.312Z,19.05
2023-02-07T05:49:09.023Z,17.67
2023-02-07T05:51:36.504Z,18.17
2023-02-07T05:54:03.962Z,18.77
2023-02-07T05:56:31.270Z,19.20
2023-02-07T05:58:58.593Z,18.42
2023-02-07T06:01:25.977Z,17.92
2023-02-07T06:03:53.489Z,19.70
2023-02-07T06:06:21.019Z,16.15
2023-02-07T06:08:48.558Z,17.02
2023-02-07T06:11:15.784Z,20.10
2023-02-07T06:13:43.190Z,19.77
2023-02-07T06:16:11.177Z,19.45
2023-02-07T06:18:38.873Z,21.33
2023-02-07T06:21:06.312Z,21.38
2023-02-07T06:23:33.595Z,20.00
2023-02-07T06:26:01.097Z,22.90
2023-02-07T06:28:28.432Z,19.17
2023-02-07T06:30:56.072Z,19.88
2023-02-07T06:33:23.285Z,20.70
2023-02-07T06:35:50.522Z,22.10
2023-02-07T06:38:18.512Z,20.58
2023-02-07T06:40:45.943Z,19.73
2023-02-07T06:43:13.133Z,18.83
2023-02-07T06:45:40.814Z,19.10
2023-02-07T06:48:08.935Z,18.33
2023-02-07T06:50:36.132Z,19.70
2023-02-07T06:53:03.470Z,18.05
2023-02-07T06:55:37.952Z,66.28
2023-02-07T07:00:33.773Z,42.17
2023-02-07T07:03:01.604Z,52.67
2023-02-07T07:05:29.904Z,48.28
2023-02-07T07:07:57.847Z,51.80
2023-02-07T07:10:25.300Z,52.92
2023-02-07T07:12:52.655Z,36.55
2023-02-07T07:15:20.355Z,44.58
2023-02-07T07:17:47.663Z,35.15
2023-02-07T07:20:15.013Z,29.38
2023-02-07T07:22:42.417Z,37.90
2023-02-07T07:25:10.480Z,32.03
2023-02-07T07:27:37.858Z,25.35
2023-02-07T07:30:05.533Z,20.83
2023-02-07T07:32:34.457Z,26.30
2023-02-07T07:35:02.440Z,23.27
2023-02-07T07:37:29.819Z,22.23
2023-02-07T07:39:57.194Z,22.35
2023-02-07T07:42:24.394Z,21.33
2023-02-07T07:44:51.852Z,20.38
2023-02-07T07:47:20.288Z,24.65
2023-02-07T07:49:47.405Z,22.17
2023-02-07T07:52:14.609Z,26.50
2023-02-07T07:54:42.278Z,23.17
2023-02-07T07:57:09.644Z,20.77
2023-02-07T07:59:36.999Z,20.00
2023-02-07T08:02:04.421Z,21.80
2023-02-07T08:04:31.810Z,20.33
2023-02-07T08:07:00.534Z,22.73
2023-02-07T08:09:27.933Z,22.08
2023-02-07T08:11:55.283Z,18.33
2023-02-07T08:14:22.395Z,20.10
2023-02-07T08:16:49.684Z,19.52
2023-02-07T08:19:16.699Z,20.05
2023-02-07T08:21:44.835Z,20.95
2023-02-07T08:24:12.579Z,20.83
2023-02-07T08:26:40.066Z,19.25
2023-02-07T08:29:07.494Z,17.45
2023-02-07T08:31:35.147Z,18.10
2023-02-07T08:34:02.568Z,16.42
2023-02-07T08:36:29.891Z,19.95
2023-02-07T08:38:57.093Z,19.75
2023-02-07T08:41:24.400Z,18.92
2023-02-07T08:43:51.557Z,20.40
2023-02-07T08:46:18.969Z,19.10
2023-02-07T08:48:46.247Z,23.50
2023-02-07T08:51:13.581Z,18.20
2023-02-07T08:53:40.898Z,20.23
2023-02-07T08:56:09.196Z,21.42
2023-02-07T08:58:36.716Z,18.05
2023-02-07T09:01:04.222Z,23.27
2023-02-07T09:03:31.493Z,19.75
2023-02-07T09:05:59.952Z,20.42
2023-02-07T09:08:27.306Z,19.95
2023-02-07T09:10:54.664Z,18.23
2023-02-07T09:13:21.872Z,21.10
2023-02-07T09:15:56.895Z,18.95
2023-02-07T09:18:25.446Z,18.50
2023-02-07T09:20:52.936Z,21.27
2023-02-07T09:23:20.315Z,22.65
2023-02-07T09:25:50.075Z,19.25
2023-02-07T09:28:19.083Z,21.98
2023-02-07T09:30:48.404Z,24.08
2023-02-07T09:33:16.714Z,22.30
2023-02-07T09:35:46.592Z,19.15
2023-02-07T09:38:17.151Z,23.35
2023-02-07T09:40:46.978Z,22.15
2023-02-07T09:43:20.352Z,23.65
2023-02-07T09:45:54.676Z,19.23
2023-02-07T09:48:45.492Z,19.45
2023-02-07T09:51:17.962Z,17.85
2023-02-07T09:53:54.882Z,20.35
2023-02-07T09:56:25.796Z,19.98
2023-02-07T09:59:05.332Z,17.25
2023-02-07T10:01:37.622Z,21.63
2023-02-07T10:04:30.265Z,20.55
2023-02-07T10:06:59.856Z,15.45
2023-02-07T10:09:32.270Z,21.27
2023-02-07T10:12:21.945Z,21.77
2023-02-07T10:15:06.902Z,17.65
2023-02-07T10:20:39.884Z,20.48
2023-02-07T10:23:37.718Z,19.92
2023-02-07T10:26:34.771Z,19.50
2023-02-07T10:29:14.185Z,20.45
2023-02-07T10:31:47.743Z,19.92
2023-02-07T10:34:24.389Z,19.45
2023-02-07T10:36:56.366Z,20.42
2023-02-07T10:39:26.398Z,16.80
2023-02-07T10:41:57.379Z,17.40
2023-02-07T10:44:25.993Z,17.92
2023-02-07T10:47:01.766Z,18.63
2023-02-07T10:49:32.000Z,22.58
2023-02-07T10:52:03.751Z,18.38
2023-02-07T10:54:48.800Z,16.30
2023-02-07T10:57:19.481Z,19.02
2023-02-07T10:59:47.658Z,19.75
2023-02-07T11:02:33.280Z,21.25
2023-02-07T11:05:05.961Z,16.52
2023-02-07T11:07:46.076Z,16.35
2023-02-07T11:10:26.386Z,19.80
2023-02-07T11:12:56.794Z,19.48
2023-02-07T11:15:47.864Z,17.88
2023-02-07T11:18:29.159Z,17.75
2023-02-07T11:20:56.458Z,20.05
2023-02-07T11:23:24.195Z,18.27
2023-02-07T11:25:55.390Z,17.55
2023-02-07T11:28:28.830Z,19.58
2023-02-07T11:31:03.728Z,15.07
2023-02-07T11:33:34.391Z,17.20
2023-02-07T11:36:04.741Z,19.63
2023-02-07T11:38:36.558Z,19.58
2023-02-07T11:41:06.839Z,21.48
2023-02-07T11:43:35.617Z,19.80
2023-02-07T11:46:09.701Z,19.80
2023-02-07T11:48:40.253Z,15.25
2023-02-07T11:51:10.300Z,16.60
2023-02-07T11:53:41.557Z,17.17
2023-02-07T11:56:41.293Z,15.95
2023-02-07T11:59:20.261Z,16.45
2023-02-07T12:02:10.018Z,16.15
2023-02-07T12:04:39.309Z,15.73
2023-02-07T12:07:09.787Z,15.10
2023-02-07T12:10:04.173Z,15.27
2023-02-07T12:12:46.108Z,16.55
2023-02-07T12:15:25.755Z,18.48
2023-02-07T12:18:10.936Z,15.10
2023-02-07T12:21:09.457Z,16.15
2023-02-07T12:24:01.955Z,17.70
2023-02-07T12:26:39.223Z,15.50
2023-02-07T12:29:25.258Z,18.50
2023-02-07T12:32:01.571Z,16.95
2023-02-07T12:34:43.781Z,15.38
2023-02-07T12:37:26.604Z,15.95
2023-02-07T12:40:04.606Z,15.30
2023-02-07T12:42:38.809Z,14.27
2023-02-07T12:45:10.348Z,15.52
2023-02-07T12:47:58.496Z,15.18
2023-02-07T12:50:50.549Z,14.00
2023-02-07T12:53:32.060Z,13.82
2023-02-07T12:56:21.089Z,19.95
2023-02-07T12:59:11.313Z,13.23
2023-02-07T13:01:45.646Z,17.35
2023-02-07T13:04:50.358Z,15.35
2023-02-07T13:07:35.356Z,12.90
2023-02-07T13:12:53.156Z,15.40
2023-02-07T13:15:27.422Z,14.80
2023-02-07T13:18:25.698Z,12.65
2023-02-07T13:20:57.345Z,12.55
2023-02-07T13:23:31.637Z,13.77
2023-02-07T13:26:08.844Z,14.00
2023-02-07T13:29:01.315Z,12.13
2023-02-07T13:31:43.494Z,13.35
2023-02-07T13:34:20.119Z,10.98
2023-02-07T13:36:52.665Z,12.60
2023-02-07T13:39:36.233Z,12.65
2023-02-07T13:42:28.776Z,13.50
2023-02-07T13:45:01.932Z,13.05
2023-02-07T13:47:32.187Z,9.55
2023-02-07T13:50:32.756Z,12.50
2023-02-07T13:53:16.180Z,11.73
2023-02-07T13:55:43.992Z,12.27
2023-02-07T13:58:54.588Z,12.02
2023-02-07T14:01:34.929Z,12.82
2023-02-07T14:04:13.594Z,9.68
2023-02-07T14:06:44.341Z,12.70
2023-02-07T14:09:11.246Z,10.15
2023-02-07T14:11:48.407Z,13.02
2023-02-07T14:14:27.747Z,11.45
2023-02-07T14:17:02.615Z,11.52
2023-02-07T14:19:42.708Z,10.00
2023-02-07T14:22:23.724Z,10.07
2023-02-07T14:24:59.946Z,10.30
2023-02-07T14:27:33.055Z,10.45
2023-02-07T14:30:00.125Z,10.88
2023-02-07T14:32:40.717Z,12.25
2023-02-07T14:35:16.913Z,9.68
2023-02-07T14:37:54.113Z,10.45
2023-02-07T14:40:31.732Z,12.35
2023-02-07T14:43:05.397Z,10.95
2023-02-07T14:45:36.414Z,10.65
2023-02-07T14:48:07.076Z,11.00
2023-02-07T14:50:35.283Z,9.68
2023-02-07T14:53:06.151Z,9.48
2023-02-07T14:55:42.889Z,9.52
2023-02-07T14:58:44.426Z,9.80
2023-02-07T15:01:14.485Z,10.68
2023-02-07T15:03:41.809Z,10.20
2023-02-07T15:06:30.732Z,11.35
2023-02-07T15:09:01.093Z,8.45
2023-02-07T15:11:30.438Z,10.27
2023-02-07T15:14:02.191Z,10.82
2023-02-07T15:16:38.459Z,10.25
2023-02-07T15:19:30.256Z,9.02
2023-02-07T15:21:57.636Z,8.88
2023-02-07T15:24:51.561Z,10.02
2023-02-07T15:27:25.421Z,7.40
2023-02-07T15:30:01.488Z,9.40
2023-02-07T15:32:31.591Z,11.63
2023-02-07T15:35:19.488Z,9.68
2023-02-07T15:37:47.752Z,8.57
2023-02-07T15:40:21.379Z,12.43
2023-02-07T15:42:57.223Z,8.32
2023-02-07T15:45:27.198Z,8.77
2023-02-07T15:48:03.387Z,8.23
2023-02-07T15:50:31.351Z,9.43
2023-02-07T15:53:00.780Z,11.07
2023-02-07T15:55:54.587Z,8.18
2023-02-07T15:58:26.209Z,9.65
2023-02-07T16:00:58.909Z,10.23
2023-02-07T16:03:34.734Z,9.18
2023-02-07T16:06:19.384Z,12.30
2023-02-07T16:08:52.359Z,8.73
2023-02-07T16:11:30.584Z,9.68
2023-02-07T16:14:32.611Z,8.52
2023-02-07T16:17:00.104Z,10.27
2023-02-07T16:19:30.304Z,11.52
2023-02-07T16:22:05.511Z,10.50
2023-02-07T16:24:35.781Z,13.32
2023-02-07T16:27:04.733Z,12.27
2023-02-07T16:29:32.912Z,11.20
2023-02-07T16:32:00.162Z,13.50
2023-02-07T16:34:27.334Z,10.45
2023-02-07T16:36:56.231Z,11.65
2023-02-07T16:39:23.609Z,11.40
2023-02-07T16:41:55.076Z,11.00
2023-02-07T16:44:26.906Z,11.60
2023-02-07T16:46:54.247Z,13.70
2023-02-07T16:49:26.523Z,12.65
2023-02-07T16:51:54.729Z,13.77
2023-02-07T16:54:21.991Z,12.45
2023-02-07T16:56:58.075Z,14.85
2023-02-07T16:59:25.824Z,13.75
2023-02-07T17:01:54.783Z,12.68
2023-02-07T17:04:22.852Z,12.20
2023-02-07T17:06:50.303Z,16.83
2023-02-07T17:09:21.554Z,16.88
2023-02-07T17:11:49.282Z,13.80
2023-02-07T17:14:16.690Z,12.55
2023-02-07T17:16:44.107Z,15.43
2023-02-07T17:19:14.219Z,12.95
2023-02-07T17:21:42.744Z,15.27
2023-02-07T17:24:10.992Z,15.48
2023-02-07T17:26:40.115Z,14.98
2023-02-07T17:29:07.730Z,13.93
2023-02-07T17:31:34.894Z,18.55
2023-02-07T17:34:01.968Z,20.27
2023-02-07T17:36:29.193Z,15.85
2023-02-07T17:38:58.961Z,16.05
2023-02-07T17:41:26.765Z,18.80
2023-02-07T17:43:54.196Z,14.60
2023-02-07T17:46:24.427Z,21.95
2023-02-07T17:48:52.297Z,18.75
2023-02-07T17:51:21.562Z,16.10
2023-02-07T17:53:48.940Z,18.55
2023-02-07T17:56:28.748Z,21.17
2023-02-07T17:58:58.824Z,18.70
2023-02-07T18:01:26.219Z,20.10
2023-02-07T18:03:55.189Z,21.42
2023-02-07T18:06:25.415Z,20.08
2023-02-07T18:08:53.766Z,19.05
2023-02-07T18:11:22.561Z,20.75
2023-02-07T18:13:50.340Z,19.55
2023-02-07T18:16:23.678Z,22.27
2023-02-07T18:18:52.981Z,29.88
2023-02-07T18:21:20.625Z,29.08
2023-02-07T18:23:48.105Z,30.23
2023-02-07T18:26:16.851Z,35.80
2023-02-07T18:28:44.630Z,26.65
2023-02-07T18:31:17.250Z,24.58
2023-02-07T18:33:44.925Z,20.08
2023-02-07T18:36:12.625Z,19.90
2023-02-07T18:38:40.282Z,19.27
2023-02-07T18:41:14.139Z,20.33
2023-02-07T18:43:42.633Z,18.05
2023-02-07T18:46:11.780Z,17.67
2023-02-07T18:48:39.159Z,25.38
2023-02-07T18:51:08.085Z,16.92
2023-02-07T18:53:35.317Z,23.75
2023-02-07T18:56:04.726Z,21.23
2023-02-07T18:58:33.668Z,19.98
2023-02-07T19:01:13.586Z,20.25
2023-02-07T19:03:41.094Z,21.05
2023-02-07T19:06:08.690Z,20.00
2023-02-07T19:08:36.181Z,16.95
2023-02-07T19:11:06.833Z,18.27
2023-02-07T19:13:35.637Z,19.02
2023-02-07T19:16:13.923Z,33.47
2023-02-07T19:18:41.536Z,22.83
2023-02-07T19:21:11.417Z,21.23
2023-02-07T19:23:39.618Z,22.42
2023-02-07T19:26:10.483Z,23.58
2023-02-07T19:28:38.788Z,19.80
2023-02-07T19:31:09.361Z,20.50
2023-02-07T19:33:37.105Z,18.65
2023-02-07T19:36:08.239Z,23.95
2023-02-07T19:38:35.848Z,25.20
2023-02-07T19:41:04.067Z,29.23
2023-02-07T19:43:31.581Z,27.10
2023-02-07T19:45:58.648Z,30.08
2023-02-07T19:48:25.878Z,34.75
2023-02-07T19:51:01.380Z,38.28
2023-02-07T19:53:29.187Z,78.75
2023-02-07T19:56:02.516Z,36.00
2023-02-07T19:58:33.902Z,23.27
2023-02-07T20:01:01.795Z,21.55
2023-02-07T20:03:29.299Z,18.75
2023-02-07T20:06:00.577Z,20.13
2023-02-07T20:08:28.219Z,22.08
2023-02-07T20:10:55.496Z,22.17
2023-02-07T20:13:22.828Z,21.63
2023-02-07T20:15:50.158Z,22.45
2023-02-07T20:18:17.345Z,21.45
2023-02-07T20:20:48.098Z,20.58
2023-02-07T20:23:16.224Z,18.77
2023-02-07T20:25:43.674Z,23.33
2023-02-07T20:28:11.179Z,21.73
2023-02-07T20:30:44.999Z,20.00
2023-02-07T20:35:40.704Z,23.00
2023-02-07T20:38:08.139Z,20.88
2023-02-07T20:40:35.379Z,23.10
2023-02-07T20:43:02.560Z,29.85
2023-02-07T20:45:29.674Z,28.13
2023-02-07T20:47:56.791Z,24.40
2023-02-07T20:50:24.020Z,26.58
2023-02-07T20:52:51.394Z,25.77
2023-02-07T20:55:19.020Z,27.45
2023-02-07T20:57:46.133Z,23.48
2023-02-07T21:00:14.118Z,25.40
2023-02-07T21:04:18.453Z,23.02
2023-02-07T21:06:45.844Z,21.80
2023-02-07T21:09:14.365Z,21.60
2023-02-07T21:11:47.932Z,20.27
2023-02-07T21:14:22.444Z,19.95
2023-02-07T21:19:17.722Z,15.73
2023-02-07T21:21:47.114Z,17.80
2023-02-07T21:24:15.308Z,19.88
2023-02-07T21:26:42.620Z,20.08
2023-02-07T21:29:12.327Z,21.13
2023-02-07T21:31:39.641Z,20.08
2023-02-07T21:34:06.915Z,17.25
2023-02-07T21:36:39.792Z,18.30
2023-02-07T21:39:10.595Z,19.42
2023-02-07T21:41:43.560Z,17.73
2023-02-07T21:44:12.959Z,20.20
2023-02-07T21:46:42.305Z,18.30
2023-02-07T21:49:16.180Z,19.73
2023-02-07T21:51:46.373Z,21.75
2023-02-07T21:54:13.713Z,21.65
2023-02-07T21:56:43.203Z,21.13
2023-02-07T21:59:18.402Z,21.98
2023-02-07T22:01:47.045Z,20.75
2023-02-07T22:04:15.644Z,20.73
2023-02-07T22:06:44.108Z,22.40
2023-02-07T22:09:13.739Z,23.38
2023-02-07T22:11:41.490Z,24.73
2023-02-07T22:14:10.203Z,24.33
2023-02-07T22:16:37.358Z,22.20
2023-02-07T22:19:06.971Z,26.10
2023-02-07T22:21:37.769Z,30.30
2023-02-07T22:24:06.306Z,24.08
2023-02-07T22:26:34.242Z,24.00
2023-02-07T22:29:01.732Z,23.48
2023-02-07T22:31:31.712Z,27.65
2023-02-07T22:34:02.762Z,27.90
2023-02-07T22:36:32.165Z,26.67
2023-02-07T22:39:01.053Z,26.92
2023-02-07T22:41:28.976Z,27.63
2023-02-07T22:43:56.557Z,24.60
2023-02-07T22:46:25.015Z,22.98
2023-02-07T22:48:53.688Z,24.95
2023-02-07T22:51:27.119Z,25.42
2023-02-07T22:53:57.254Z,28.48
2023-02-07T22:56:25.804Z,26.92
2023-02-07T22:58:54.425Z,24.92
2023-02-07T23:01:24.945Z,27.40
2023-02-07T23:03:53.305Z,23.80
2023-02-07T23:06:21.722Z,28.55
2023-02-07T23:08:50.027Z,24.55
2023-02-07T23:11:19.557Z,24.55
2023-02-07T23:13:47.009Z,26.23
2023-02-07T23:16:17.351Z,25.58
2023-02-07T23:18:44.748Z,25.02
2023-02-07T23:21:15.429Z,28.15
2023-02-07T23:23:43.087Z,27.15
2023-02-07T23:26:16.453Z,24.15
2023-02-07T23:28:45.328Z,22.25
2023-02-07T23:31:17.325Z,28.83
2023-02-07T23:33:44.920Z,24.35
2023-02-07T23:36:12.806Z,25.25
2023-02-07T23:38:40.379Z,24.50
2023-02-07T23:41:08.007Z,24.13
2023-02-07T23:43:38.543Z,24.45
2023-02-07T23:46:07.071Z,26.98
2023-02-07T23:48:38.091Z,27.13
2023-02-07T23:51:07.249Z,26.60
2023-02-07T23:53:35.282Z,26.73
2023-02-07T23:56:04.520Z,26.75
2023-02-07T23:58:32.793Z,28.50
